createdAt,value
2022-11-26T00:02:39.052Z,1.74
2022-11-26T00:07:47.670Z,1.75
2022-11-26T00:12:51.691Z,1.83
2022-11-26T00:17:55.665Z,1.89
2022-11-26T00:23:04.524Z,1.97
2022-11-26T00:28:30.602Z,2.05
2022-11-26T00:33:34.265Z,2.09
2022-11-26T00:38:40.488Z,2.05
2022-11-26T00:43:46.175Z,2.07
2022-11-26T00:48:49.786Z,2.05
2022-11-26T00:53:58.221Z,2.05
2022-11-26T00:59:01.406Z,1.99
2022-11-26T01:04:04.850Z,1.98
2022-11-26T01:09:16.217Z,1.97
2022-11-26T01:14:21.408Z,1.93
2022-11-26T01:19:24.587Z,1.91
2022-11-26T01:24:27.832Z,1.94
2022-11-26T01:29:31.002Z,2.01
2022-11-26T01:34:34.167Z,2.03
2022-11-26T01:39:37.281Z,2.03
2022-11-26T01:44:40.770Z,2.06
2022-11-26T01:50:22.964Z,2.09
2022-11-26T01:55:39.672Z,2.09
2022-11-26T02:00:43.201Z,2.10
2022-11-26T02:05:57.860Z,2.14
2022-11-26T02:11:14.649Z,2.16
2022-11-26T02:16:28.483Z,2.17
2022-11-26T02:21:36.857Z,2.16
2022-11-26T02:27:08.174Z,2.18
2022-11-26T02:32:20.412Z,2.16
2022-11-26T02:37:29.912Z,2.11
2022-11-26T02:42:35.663Z,2.06
2022-11-26T02:47:42.118Z,2.02
2022-11-26T02:52:45.442Z,1.96
2022-11-26T02:57:50.989Z,1.96
2022-11-26T03:03:08.987Z,1.99
2022-11-26T03:08:12.145Z,2.04
2022-11-26T03:13:15.410Z,2.07
2022-11-26T03:18:19.085Z,2.13
2022-11-26T03:23:22.392Z,2.18
2022-11-26T03:28:25.593Z,2.24
2022-11-26T03:33:28.753Z,2.30
2022-11-26T03:38:31.885Z,2.36
2022-11-26T03:43:35.170Z,2.37
2022-11-26T03:48:38.636Z,2.37
2022-11-26T03:53:42.112Z,2.34
2022-11-26T03:58:45.271Z,2.32
2022-11-26T04:03:48.545Z,2.23
2022-11-26T04:08:51.785Z,2.14
2022-11-26T04:13:55.258Z,2.03
2022-11-26T04:18:58.470Z,1.94
2022-11-26T04:24:01.994Z,1.85
2022-11-26T04:29:05.290Z,1.82
2022-11-26T04:34:08.593Z,1.81
2022-11-26T04:39:12.891Z,1.83
2022-11-26T04:44:16.100Z,1.84
2022-11-26T04:49:19.390Z,1.92
2022-11-26T04:54:22.563Z,1.95
2022-11-26T04:59:25.793Z,1.98
2022-11-26T05:04:29.941Z,1.98
2022-11-26T05:09:33.190Z,2.00
2022-11-26T05:14:36.655Z,2.06
2022-11-26T05:19:39.992Z,2.10
2022-11-26T05:24:43.254Z,2.05
2022-11-26T05:29:46.719Z,2.02
2022-11-26T05:34:49.959Z,2.01
2022-11-26T05:39:53.209Z,2.08
2022-11-26T05:44:56.407Z,2.16
2022-11-26T05:49:59.609Z,2.19
2022-11-26T05:55:02.846Z,2.25
2022-11-26T06:00:07.320Z,2.31
2022-11-26T06:05:11.065Z,2.34
2022-11-26T06:10:15.175Z,2.38
2022-11-26T06:15:18.459Z,2.41
2022-11-26T06:20:21.718Z,2.37
2022-11-26T06:25:24.875Z,2.35
2022-11-26T06:30:28.273Z,2.33
2022-11-26T06:35:31.500Z,2.33
2022-11-26T06:40:35.192Z,2.31
2022-11-26T06:45:38.536Z,2.28
2022-11-26T06:50:41.822Z,2.29
2022-11-26T06:55:45.504Z,2.33
2022-11-26T07:00:49.162Z,2.31
2022-11-26T07:05:52.442Z,2.33
2022-11-26T07:10:55.675Z,2.32
2022-11-26T07:16:05.389Z,2.30
2022-11-26T07:21:11.773Z,2.28
2022-11-26T07:26:15.918Z,2.29
2022-11-26T07:31:21.443Z,2.36
2022-11-26T07:36:27.321Z,2.41
2022-11-26T07:41:31.009Z,2.50
2022-11-26T07:46:34.393Z,2.61
2022-11-26T07:51:37.824Z,2.72
2022-11-26T07:56:41.159Z,2.79
2022-11-26T08:01:44.503Z,2.84
2022-11-26T08:06:48.154Z,2.93
2022-11-26T08:11:51.367Z,3.00
2022-11-26T08:16:54.733Z,3.05
2022-11-26T08:21:57.995Z,3.07
2022-11-26T08:27:01.552Z,3.15
2022-11-26T08:32:05.124Z,3.25
2022-11-26T08:37:08.491Z,3.34
2022-11-26T08:42:11.704Z,3.40
2022-11-26T08:47:14.915Z,3.39
2022-11-26T08:52:18.300Z,3.36
2022-11-26T08:57:21.590Z,3.36
2022-11-26T09:02:24.929Z,3.42
2022-11-26T09:07:28.474Z,3.47
2022-11-26T09:12:31.676Z,3.45
2022-11-26T09:17:35.121Z,3.44
2022-11-26T09:22:38.840Z,3.44
2022-11-26T09:27:42.048Z,3.39
2022-11-26T09:32:45.782Z,3.39
2022-11-26T09:37:51.698Z,3.46
2022-11-26T09:43:16.064Z,3.48
2022-11-26T09:48:25.863Z,3.52
2022-11-26T09:53:36.729Z,3.64
2022-11-26T09:58:54.798Z,3.71
2022-11-26T10:03:59.429Z,3.71
2022-11-26T10:09:17.845Z,3.69
2022-11-26T10:14:59.003Z,3.68
2022-11-26T10:20:14.754Z,3.64
2022-11-26T10:25:22.036Z,3.60
2022-11-26T10:30:28.636Z,3.65
2022-11-26T10:35:33.744Z,3.60
2022-11-26T10:40:37.094Z,3.58
2022-11-26T10:45:42.126Z,3.62
2022-11-26T10:51:16.725Z,3.64
2022-11-26T10:56:42.717Z,3.63
2022-11-26T11:01:51.745Z,3.65
2022-11-26T11:06:59.504Z,3.65
2022-11-26T11:12:11.836Z,3.65
2022-11-26T11:17:25.440Z,3.59
2022-11-26T11:22:29.056Z,3.38
2022-11-26T11:27:44.218Z,3.24
2022-11-26T11:32:47.577Z,3.20
2022-11-26T11:37:56.646Z,3.19
2022-11-26T11:43:04.437Z,3.20
2022-11-26T11:48:16.817Z,3.26
2022-11-26T11:53:52.088Z,3.20
2022-11-26T11:59:01.932Z,3.19
2022-11-26T12:04:21.497Z,3.16
2022-11-26T12:09:24.795Z,3.19
2022-11-26T12:14:59.435Z,3.19
2022-11-26T12:20:13.869Z,3.19
2022-11-26T12:25:24.557Z,3.23
2022-11-26T12:30:41.378Z,3.29
2022-11-26T12:35:54.059Z,3.30
2022-11-26T12:41:12.131Z,3.24
2022-11-26T12:46:36.166Z,3.21
2022-11-26T12:51:56.853Z,3.15
2022-11-26T12:57:09.067Z,3.12
2022-11-26T13:02:21.049Z,3.02
2022-11-26T13:07:47.783Z,2.91
2022-11-26T13:12:56.974Z,2.86
2022-11-26T13:18:05.694Z,2.81
2022-11-26T13:23:40.478Z,2.75
2022-11-26T13:29:05.715Z,2.69
2022-11-26T13:34:28.295Z,2.69
2022-11-26T13:39:41.068Z,2.69
2022-11-26T13:45:26.656Z,2.71
2022-11-26T13:50:53.093Z,2.74
2022-11-26T13:56:02.159Z,2.75
2022-11-26T14:01:41.685Z,2.75
2022-11-26T14:07:03.793Z,2.76
2022-11-26T14:12:06.996Z,2.74
2022-11-26T14:17:15.967Z,2.75
2022-11-26T14:22:22.365Z,2.76
2022-11-26T14:27:33.149Z,2.73
2022-11-26T14:32:56.078Z,2.70
2022-11-26T14:38:01.137Z,2.72
2022-11-26T14:43:16.920Z,2.73
2022-11-26T14:48:27.336Z,2.77
2022-11-26T14:53:34.536Z,2.80
2022-11-26T14:58:49.644Z,2.81
2022-11-26T15:03:59.004Z,2.81
2022-11-26T15:09:15.497Z,2.77
2022-11-26T15:14:32.033Z,2.75
2022-11-26T15:19:38.381Z,2.73
2022-11-26T15:24:42.208Z,2.69
2022-11-26T15:29:49.976Z,2.62
2022-11-26T15:34:55.100Z,2.56
2022-11-26T15:40:22.025Z,2.52
2022-11-26T15:45:36.398Z,2.48
2022-11-26T15:50:39.747Z,2.45
2022-11-26T15:55:48.492Z,2.44
2022-11-26T16:00:55.608Z,2.43
2022-11-26T16:05:59.377Z,2.46
2022-11-26T16:11:03.166Z,2.47
2022-11-26T16:16:26.579Z,2.50
2022-11-26T16:21:34.866Z,2.51
2022-11-26T16:27:01.023Z,2.54
2022-11-26T16:32:04.600Z,2.53
2022-11-26T16:37:26.538Z,2.48
2022-11-26T16:42:31.737Z,2.46
2022-11-26T16:47:38.931Z,2.46
2022-11-26T16:52:43.462Z,2.51
2022-11-26T16:57:52.807Z,2.55
2022-11-26T17:02:59.509Z,2.56
2022-11-26T17:08:06.110Z,2.57
2022-11-26T17:13:10.164Z,2.58
2022-11-26T17:18:25.038Z,2.61
2022-11-26T17:23:28.561Z,2.64
2022-11-26T17:28:31.935Z,2.66
2022-11-26T17:33:35.184Z,2.66
2022-11-26T17:38:38.613Z,2.63
2022-11-26T17:43:42.725Z,2.62
2022-11-26T17:48:46.586Z,2.62
2022-11-26T17:53:53.292Z,2.62
2022-11-26T17:58:59.961Z,2.60
2022-11-26T18:04:03.976Z,2.57
2022-11-26T18:09:07.518Z,2.55
2022-11-26T18:14:10.711Z,2.56
2022-11-26T18:19:15.776Z,2.53
2022-11-26T18:24:19.206Z,2.50
2022-11-26T18:29:27.681Z,2.51
2022-11-26T18:34:30.964Z,2.53
2022-11-26T18:39:35.046Z,2.55
2022-11-26T18:44:38.330Z,2.54
2022-11-26T18:49:46.030Z,2.53
2022-11-26T18:54:50.843Z,2.54
2022-11-26T18:59:56.678Z,2.55
2022-11-26T19:04:59.926Z,2.57
2022-11-26T19:10:03.324Z,2.59
2022-11-26T19:15:07.000Z,2.60
2022-11-26T19:20:10.376Z,2.63
2022-11-26T19:25:13.854Z,2.64
2022-11-26T19:30:17.346Z,2.67
2022-11-26T19:35:20.589Z,2.71
2022-11-26T19:40:24.022Z,2.72
2022-11-26T19:45:27.323Z,2.73
2022-11-26T19:50:30.715Z,2.73
2022-11-26T19:55:34.082Z,2.75
2022-11-26T20:00:37.304Z,2.78
2022-11-26T20:05:42.917Z,2.76
2022-11-26T20:10:49.908Z,2.74
2022-11-26T20:15:53.882Z,2.74
2022-11-26T20:21:00.267Z,2.74
2022-11-26T20:26:05.238Z,2.75
2022-11-26T20:31:08.704Z,2.76
2022-11-26T20:36:15.266Z,2.73
2022-11-26T20:41:19.108Z,2.72
2022-11-26T20:46:22.572Z,2.71
2022-11-26T20:51:26.050Z,2.70
2022-11-26T20:56:30.543Z,2.69
2022-11-26T21:01:34.640Z,2.69
2022-11-26T21:06:43.682Z,2.67
2022-11-26T21:11:46.957Z,2.62
2022-11-26T21:16:52.488Z,2.61
2022-11-26T21:21:56.331Z,2.62
2022-11-26T21:27:00.251Z,2.62
2022-11-26T21:32:03.685Z,2.62
2022-11-26T21:37:11.840Z,2.60
2022-11-26T21:42:15.046Z,2.57
2022-11-26T21:47:18.264Z,2.58
2022-11-26T21:52:21.575Z,2.58
2022-11-26T21:57:53.719Z,2.56
2022-11-26T22:02:57.644Z,2.57
2022-11-26T22:08:01.505Z,2.58
2022-11-26T22:13:05.485Z,2.58
2022-11-26T22:18:09.175Z,2.55
2022-11-26T22:23:12.433Z,2.53
2022-11-26T22:28:15.708Z,2.58
2022-11-26T22:33:19.873Z,2.62
2022-11-26T22:38:23.071Z,2.63
2022-11-26T22:43:26.280Z,2.63
2022-11-26T22:48:29.720Z,2.64
2022-11-26T22:53:35.739Z,2.61
2022-11-26T22:58:39.061Z,2.59
2022-11-26T23:03:42.257Z,2.56
2022-11-26T23:08:45.917Z,2.55
2022-11-26T23:13:50.785Z,2.58
2022-11-26T23:18:56.168Z,2.61
2022-11-26T23:23:59.603Z,2.61
2022-11-26T23:29:04.408Z,2.64
2022-11-26T23:34:08.941Z,2.64
2022-11-26T23:39:13.937Z,2.67
2022-11-26T23:44:17.076Z,2.69
2022-11-26T23:49:22.961Z,2.72
2022-11-26T23:54:26.274Z,2.72
2022-11-26T23:59:30.183Z,2.67
